Time;durP1;ratioP1;P1;durP2;ratioP2;P2;SDS_P1;SDS_P2;PMS_P1;PMS_P2;Temp;Humidity;BMP_temperature;BMP_pressure;BME280_temperature;BME280_humidity;BME280_pressure;Samples;Min_cycle;Max_cycle;Signal;HPM_P1;HPM_P2
2021/12/05 00:23:15;;;;;;;;;;;;;;;;;;5144192;27;7559;-74
2021/12/05 00:25:43;;;;;;;;;;;;;;;;;;5144540;27;7547;-77
2021/12/05 00:36:47;;;;;;;;;;;;;;;;;;5143696;27;7552;-73
2021/12/05 01:15:19;;;;;;;;;;;;;;;;;;5131629;27;7583;-73
2021/12/05 01:17:58;;;;;;;;;;;;;;;;;;5143329;27;7559;-74
2021/12/05 01:20:23;;;;;;;;;;;;;;;;;;5143740;27;8312;-73
2021/12/05 01:22:57;;;;;;;;;;;;;;;;;;5143804;27;7587;-73
2021/12/05 01:26:06;;;;;;;;;;;;;;;;;;5142611;27;7578;-73
2021/12/05 01:36:17;;;;;;;;;;;;;;;;;;5137800;27;7551;-73
2021/12/05 02:02:49;;;;;;;;;;;;;;;;;;5145716;27;8271;-73
2021/12/05 02:08:17;;;;;;;;;;;;;;;;;;5146498;27;7555;-73
2021/12/05 02:42:46;;;;;;;;;;;;;;;;;;5125168;27;7559;-73
2021/12/05 02:45:11;;;;;;;;;;;;;;;;;;5145509;27;7560;-73
2021/12/05 02:47:37;;;;;;;;;;;;;;;;;;5145136;27;7524;-73
2021/12/05 02:50:04;;;;;;;;;;;;;;;;;;5145483;27;7575;-73
2021/12/05 02:52:31;;;;;;;;;;;;;;;;;;5126986;27;8063;-73
2021/12/05 02:54:56;;;;;;;;;;;;;;;;;;5145525;27;7571;-73
2021/12/05 02:58:13;;;;;;;;;;;;;;;;;;5145006;27;7591;-73
2021/12/05 03:00:13;;;;;;;;;;;;;;;;;;5141779;27;7658;-73
2021/12/05 03:02:41;;;;;;;;;;;;;;;;;;5144832;27;7953;-73
2021/12/05 03:05:10;;;;;;;;;;;;;;;;;;5126613;27;7564;-72
2021/12/05 03:07:40;;;;;;;;;;;;;;;;;;5145653;27;7560;-72
2021/12/05 03:10:05;;;;;;;;;;;;;;;;;;5145506;27;7569;-73
2021/12/05 03:12:33;;;;;;;;;;;;;;;;;;5145398;27;7528;-72
2021/12/05 03:14:58;;;;;;;;;;;;;;;;;;5145825;27;7696;-73
2021/12/05 03:17:23;;;;;;;;;;;;;;;;;;5145523;27;7627;-72
2021/12/05 03:19:49;;;;;;;;;;;;;;;;;;5145743;27;7552;-73
2021/12/05 03:22:14;;;;;;;;;;;;;;;;;;5145391;27;7563;-73
2021/12/05 03:24:39;;;;;;;;;;;;;;;;;;5126393;27;7572;-73
2021/12/05 03:27:04;;;;;;;;;;;;;;;;;;5126503;27;7567;-73
2021/12/05 03:29:29;;;;;;;;;;;;;;;;;;5145178;27;8028;-73
2021/12/05 03:31:54;;;;;;;;;;;;;;;;;;5145558;27;7582;-74
2021/12/05 09:30:30;;;;;;;;;4.75;2.75;;;;;;;;5196956;27;13349;-73
2021/12/05 10:03:06;;;;;;;;;4.60;2.60;;;;;;;;5196097;27;13297;-73
2021/12/05 10:13:56;;;;;;;;;3.00;2.00;;;;;;;;5195134;27;13271;-77
2021/12/05 10:16:22;;;;;;;;;2.50;2.00;;;;;;;;5192239;27;13327;-77
2021/12/05 10:54:00;;;;;;;;;3.75;3.75;;;;;;;;5192131;27;76853;-72
2021/12/05 10:56:27;;;;;;;;;3.50;3.50;;;;;;;;5170569;27;21777;-69
2021/12/05 10:59:07;;;;;;;;;10.50;3.25;;;;;;;;5154632;27;13474;-72
2021/12/05 11:01:34;;;;;;;;;2.80;2.00;;;;;;;;5135248;27;22896;-72
2021/12/05 11:04:02;;;;;;;;;3.00;2.00;;;;;;;;5154539;27;21438;-72
2021/12/05 11:06:27;;;;;;;;;3.25;3.25;;;;;;;;5162458;27;13328;-71
2021/12/05 11:08:54;;;;;;;;;3.75;1.25;;;;;;;;5159587;27;13415;-74
2021/12/05 11:11:19;;;;;;;;;3.20;2.00;;;;;;;;5154961;27;13358;-71
2021/12/05 11:13:45;;;;;;;;;6.00;3.33;;;;;;;;5154741;27;13369;-70
2021/12/05 11:16:29;;;;;;;;;3.75;2.25;;;;;;;;5144777;27;13384;-71
2021/12/05 11:18:54;;;;;;;;;5.00;3.00;;;;;;;;5175772;27;13867;-69
2021/12/05 11:21:24;;;;;;;;;4.00;2.00;;;;;;;;5175766;27;13333;-72
2021/12/05 11:24:08;;;;;;;;;4.50;1.00;;;;;;;;5174954;27;13386;-75
2021/12/05 11:26:34;;;;;;;;;3.20;2.00;;;;;;;;5155118;27;14186;-75
2021/12/05 11:29:00;;;;;;;;;5.00;2.80;;;;;;;;5175844;27;13306;-74
2021/12/05 11:31:27;;;;;;;;;5.00;4.50;;;;;;;;5175267;27;13350;-69
2021/12/05 11:33:55;;;;;;;;;4.75;4.50;;;;;;;;5174647;27;13315;-70
2021/12/05 11:36:28;;;;;;;;;4.00;3.00;;;;;;;;5173371;27;13437;-72
2021/12/05 11:38:54;;;;;;;;;3.00;1.75;;;;;;;;5173798;27;13324;-73
2021/12/05 11:41:23;;;;;;;;;5.00;3.00;;;;;;;;5166510;27;13356;-73
2021/12/05 11:43:48;;;;;;;;;3.00;1.25;;;;;;;;5152877;27;13449;-73
2021/12/05 11:46:15;;;;;;;;;4.00;2.50;;;;;;;;5169228;27;13283;-74
2021/12/05 11:48:40;;;;;;;;;4.00;3.75;;;;;;;;5173876;27;13363;-74
2021/12/05 11:51:20;;;;;;;;;5.00;2.33;;;;;;;;5154254;27;13370;-73
2021/12/05 11:53:48;;;;;;;;;3.40;2.00;;;;;;;;5173278;27;13359;-75
2021/12/05 11:56:42;;;;;;;;;5.50;5.50;;;;;;;;5173974;27;13395;-76
2021/12/05 11:59:16;;;;;;;;;3.00;2.00;;;;;;;;5152071;27;13330;-74
2021/12/05 12:01:42;;;;;;;;;2.80;2.80;;;;;;;;5103732;27;13271;-74
2021/12/05 12:04:08;;;;;;;;;6.00;3.00;;;;;;;;5093808;28;13425;-74
2021/12/05 12:06:33;;;;;;;;;3.00;3.00;;;;;;;;5086689;28;13403;-75
2021/12/05 12:08:59;;;;;;;;;4.00;2.00;;;;;;;;5087294;28;13462;-76
2021/12/05 12:11:24;;;;;;;;;5.00;2.50;;;;;;;;5087450;28;13449;-75
2021/12/05 12:13:51;;;;;;;;;2.75;2.75;;;;;;;;5086500;28;13398;-74
2021/12/05 12:16:16;;;;;;;;;4.25;3.25;;;;;;;;5088125;28;13414;-77
2021/12/05 12:18:45;;;;;;;;;53.00;44.00;;;;;;;;5086031;28;13457;-76
2021/12/05 12:21:18;;;;;;;;;61.80;48.20;;;;;;;;5084995;28;23081;-78
2021/12/05 12:23:43;;;;;;;;;61.75;49.75;;;;;;;;5086605;28;14793;-77
2021/12/05 12:26:10;;;;;;;;;143.00;123.50;;;;;;;;5084216;28;13637;-76
2021/12/05 12:28:35;;;;;;;;;36.75;32.75;;;;;;;;5032582;27;24799;-74
2021/12/05 12:31:06;;;;;;;;;17.00;16.25;;;;;;;;5100410;28;26265;-73
2021/12/05 12:33:31;;;;;;;;;5.00;5.00;;;;;;;;5102483;28;13877;-72
2021/12/05 12:35:57;;;;;;;;;8.75;7.25;;;;;;;;5111591;28;24499;-73
2021/12/05 12:38:31;;;;;;;;;3.00;3.00;;;;;;;;5104082;28;13495;-74
2021/12/05 12:40:59;;;;;;;;;4.00;3.00;;;;;;;;5108399;28;13437;-73
2021/12/05 12:43:42;;;;;;;;;3.25;3.25;;;;;;;;5108325;28;14396;-74
2021/12/05 12:46:20;;;;;;;;;3.25;3.25;;;;;;;;5108156;28;13513;-75
2021/12/05 12:48:46;;;;;;;;;2.00;2.00;;;;;;;;5104372;28;13607;-75
2021/12/05 12:51:23;;;;;;;;;4.00;2.00;;;;;;;;5105282;28;13471;-75
2021/12/05 12:53:53;;;;;;;;;2.00;2.00;;;;;;;;5102433;28;13525;-73
2021/12/05 12:56:22;;;;;;;;;2.00;2.00;;;;;;;;5100929;28;13520;-76
2021/12/05 12:58:49;;;;;;;;;5.00;3.60;;;;;;;;5106074;28;13448;-75
2021/12/05 13:01:32;;;;;;;;;5.00;4.00;;;;;;;;5105263;28;13489;-76
2021/12/05 13:12:49;;;;;;;;;5.00;4.00;;;;;;;;5108722;28;13588;-81
2021/12/05 13:15:17;;;;;;;;;4.40;4.40;;;;;;;;5106177;28;14370;-81
2021/12/05 13:17:45;;;;;;;;;4.50;2.00;;;;;;;;5104006;28;13465;-84
2021/12/05 13:20:12;;;;;;;;;2.00;2.00;;;;;;;;5106261;28;13476;-82
2021/12/05 13:22:56;;;;;;;;;2.25;1.25;;;;;;;;5107498;28;13512;-81
2021/12/05 13:25:22;;;;;;;;;4.00;2.00;;;;;;;;5107888;28;13602;-85
2021/12/05 13:27:47;;;;;;;;;5.67;4.00;;;;;;;;5105952;28;13507;-83
2021/12/05 13:30:26;;;;;;;;;2.75;2.00;;;;;;;;5106922;28;13453;-83
2021/12/05 13:33:11;;;;;;;;;3.00;3.00;;;;;;;;5107412;28;13527;-84
2021/12/05 13:35:38;;;;;;;;;2.00;2.00;;;;;;;;5106297;28;13447;-84
2021/12/05 13:38:04;;;;;;;;;3.00;2.00;;;;;;;;5107206;28;13559;-82
2021/12/05 13:40:32;;;;;;;;;3.00;3.00;;;;;;;;5108994;28;13425;-87
2021/12/05 13:43:05;;;;;;;;;1.00;1.00;;;;;;;;5116873;28;13424;-86
2021/12/05 13:45:33;;;;;;;;;3.00;1.80;;;;;;;;5117968;28;13406;-89
2021/12/05 13:48:00;;;;;;;;;1.00;1.00;;;;;;;;5117902;28;14428;-82
2021/12/05 13:50:28;;;;;;;;;3.33;2.00;;;;;;;;5118020;28;13413;-87
2021/12/05 13:52:56;;;;;;;;;4.00;2.75;;;;;;;;5116462;28;13463;-82
2021/12/05 13:55:31;;;;;;;;;2.80;2.80;;;;;;;;5116844;28;14382;-85
2021/12/05 13:58:14;;;;;;;;;2.40;2.40;;;;;;;;5117523;28;14036;-85
2021/12/05 14:01:03;;;;;;;;;3.50;2.00;;;;;;;;5116677;28;13420;-85
2021/12/05 14:03:40;;;;;;;;;2.00;2.00;;;;;;;;5104937;28;14323;-87
2021/12/05 14:06:24;;;;;;;;;2.00;2.00;;;;;;;;5114881;28;13445;-83
2021/12/05 14:08:51;;;;;;;;;2.20;2.20;;;;;;;;5116192;27;13419;-82
2021/12/05 14:11:16;;;;;;;;;2.60;2.60;;;;;;;;5117035;28;14501;-83
2021/12/05 14:13:41;;;;;;;;;1.00;1.00;;;;;;;;5116546;28;13553;-84
2021/12/05 14:16:07;;;;;;;;;2.00;2.00;;;;;;;;5116750;28;13893;-83
2021/12/05 14:18:32;;;;;;;;;4.33;2.00;;;;;;;;5115001;28;13424;-83
2021/12/05 14:21:09;;;;;;;;;4.00;4.00;;;;;;;;5116403;28;13583;-84
2021/12/05 14:23:35;;;;;;;;;3.20;2.60;;;;;;;;5115213;28;13554;-76
2021/12/05 14:26:12;;;;;;;;;3.00;2.00;;;;;;;;5115084;28;13511;-83
2021/12/05 14:28:37;;;;;;;;;2.40;2.40;;;;;;;;5116382;28;13382;-85
2021/12/05 14:31:02;;;;;;;;;2.00;2.00;;;;;;;;5116644;28;13406;-83
2021/12/05 14:33:28;;;;;;;;;4.00;4.00;;;;;;;;5117134;28;13438;-82
2021/12/05 16:27:06;;;;;;;;;6.00;4.75;;;;;;;;5131822;27;2275697;-84
2021/12/05 16:29:31;;;;;;;;;6.00;6.00;;;;;;;;5195568;27;21291;-73
2021/12/05 16:31:58;;;;;;;;;6.25;6.25;;;;;;;;5196511;27;13432;-78
2021/12/05 16:34:26;;;;;;;;;7.00;7.00;;;;;;;;5198284;27;13342;-83
2021/12/05 16:36:54;;;;;;;;;8.75;7.75;;;;;;;;5197415;27;13307;-74
2021/12/05 16:39:21;;;;;;;;;7.80;7.80;;;;;;;;5197349;27;13369;-84
2021/12/05 16:41:49;;;;;;;;;5.75;5.75;;;;;;;;5194878;27;13292;-76
2021/12/05 16:44:20;;;;;;;;;8.00;8.00;;;;;;;;5191908;27;14048;-74
2021/12/05 16:46:46;;;;;;;;;8.00;8.00;;;;;;;;5194729;27;13337;-73
2021/12/05 16:49:13;;;;;;;;;8.00;8.00;;;;;;;;5194747;27;13164;-74
2021/12/05 16:51:51;;;;;;;;;7.60;7.60;;;;;;;;5193844;27;13505;-74
2021/12/05 16:54:23;;;;;;;;;8.00;8.00;;;;;;;;5192015;27;13402;-76
2021/12/05 16:56:49;;;;;;;;;10.80;9.00;;;;;;;;5193782;27;14123;-84
2021/12/05 16:59:35;;;;;;;;;10.20;9.20;;;;;;;;5193465;27;22183;-82
2021/12/05 17:02:20;;;;;;;;;14.80;13.60;;;;;;;;5173331;27;14067;-83
2021/12/05 17:04:49;;;;;;;;;15.67;13.67;;;;;;;;5173198;27;24154;-86
2021/12/05 17:07:18;;;;;;;;;17.00;15.00;;;;;;;;5190967;27;13464;-81
2021/12/05 17:09:44;;;;;;;;;9.40;9.00;;;;;;;;5175448;27;14291;-87
2021/12/05 17:12:30;;;;;;;;;11.40;9.20;;;;;;;;5195330;27;22597;-85
2021/12/05 17:15:16;;;;;;;;;11.00;11.00;;;;;;;;5193809;27;21436;-84
2021/12/05 17:17:42;;;;;;;;;5.75;5.25;;;;;;;;5180588;27;23636;-91
2021/12/05 17:20:22;;;;;;;;;9.00;6.50;;;;;;;;5183189;27;22385;-85
2021/12/05 17:22:51;;;;;;;;;8.00;5.00;;;;;;;;5200282;27;11558;-81
2021/12/05 17:25:30;;;;;;;;;5.00;5.00;;;;;;;;5198888;27;11404;-81
2021/12/05 17:27:56;;;;;;;;;10.50;5.75;;;;;;;;5180129;27;11457;-80
2021/12/05 17:30:21;;;;;;;;;6.50;6.00;;;;;;;;5184520;27;22671;-75
2021/12/05 17:32:46;;;;;;;;;9.00;6.00;;;;;;;;5196429;27;21496;-74
2021/12/05 17:35:12;;;;;;;;;9.50;8.50;;;;;;;;5197725;27;8936;-74
2021/12/05 17:37:42;;;;;;;;;8.00;8.00;;;;;;;;5187001;27;11610;-75
2021/12/05 17:40:08;;;;;;;;;5.00;5.00;;;;;;;;5160266;27;13767;-77
2021/12/05 17:42:33;;;;;;;;;7.25;5.75;;;;;;;;5178958;27;12136;-75
2021/12/05 17:45:01;;;;;;;;;8.00;5.75;;;;;;;;5162819;27;11292;-73
2021/12/05 17:47:27;;;;;;;;;6.00;5.75;;;;;;;;5144562;27;9096;-75
2021/12/05 17:49:53;;;;;;;;;5.25;4.00;;;;;;;;5178171;27;11369;-74
2021/12/05 17:52:21;;;;;;;;;4.00;3.50;;;;;;;;5183583;27;11449;-76
2021/12/05 17:54:58;;;;;;;;;4.00;4.00;;;;;;;;5183288;27;11799;-76
2021/12/05 17:57:39;;;;;;;;;6.00;4.75;;;;;;;;5180834;27;11387;-77
2021/12/05 18:00:57;;;;;;;;;1.00;1.00;;;;;;;;5183352;27;11990;-77
2021/12/05 18:03:05;;;;;;;;;5.00;5.00;;;;;;;;5179591;27;11380;-74
2021/12/05 18:05:30;;;;;;;;;6.50;5.25;;;;;;;;5184089;27;11441;-74
2021/12/05 18:08:00;;;;;;;;;4.00;4.00;;;;;;;;5181490;27;11579;-77
2021/12/05 18:10:26;;;;;;;;;9.00;6.00;;;;;;;;5179067;27;11445;-75
2021/12/05 18:12:56;;;;;;;;;6.25;5.25;;;;;;;;5172148;27;11400;-75
2021/12/05 18:15:26;;;;;;;;;5.50;5.50;;;;;;;;5162778;27;12644;-79
2021/12/05 18:17:52;;;;;;;;;11.67;8.00;;;;;;;;5142081;27;13406;-76
2021/12/05 18:20:19;;;;;;;;;6.00;6.00;;;;;;;;5160851;27;21433;-77
2021/12/05 18:22:45;;;;;;;;;14.00;9.00;;;;;;;;5161975;27;21569;-77
2021/12/05 18:25:12;;;;;;;;;17.00;12.67;;;;;;;;5159018;27;21485;-75
2021/12/05 18:27:38;;;;;;;;;18.33;13.00;;;;;;;;5162621;27;21661;-75
2021/12/05 18:30:05;;;;;;;;;9.00;8.00;;;;;;;;5161893;27;11695;-75
2021/12/05 18:32:30;;;;;;;;;12.67;8.00;;;;;;;;5162054;27;22281;-74
2021/12/05 18:34:55;;;;;;;;;6.67;6.00;;;;;;;;5162255;27;16511;-78
2021/12/05 18:37:21;;;;;;;;;4.00;4.00;;;;;;;;5161297;27;21348;-84
2021/12/05 18:39:49;;;;;;;;;10.50;8.00;;;;;;;;5161899;27;10790;-78
2021/12/05 18:42:17;;;;;;;;;9.50;8.00;;;;;;;;5183532;27;21647;-76
2021/12/05 18:44:47;;;;;;;;;8.25;8.25;;;;;;;;5182294;27;16271;-75
2021/12/05 18:47:13;;;;;;;;;12.67;10.33;;;;;;;;5183614;27;11423;-74
2021/12/05 18:49:39;;;;;;;;;13.50;8.00;;;;;;;;5181072;27;22218;-73
2021/12/05 18:52:05;;;;;;;;;12.00;10.33;;;;;;;;5182281;27;21492;-74
2021/12/05 18:54:30;;;;;;;;;15.67;9.33;;;;;;;;5182319;27;21815;-75
2021/12/05 18:56:56;;;;;;;;;18.33;15.00;;;;;;;;5183297;27;22500;-79
2021/12/05 18:59:23;;;;;;;;;16.00;13.00;;;;;;;;5182647;27;21472;-73
2021/12/05 19:07:07;;;;;;;;;20.67;17.00;;;;;;;;5181598;27;11472;-77
2021/12/05 19:12:08;;;;;;;;;19.00;16.00;;;;;;;;5182344;27;13264;-79
2021/12/05 19:14:35;;;;;;;;;20.00;19.00;;;;;;;;5181645;27;9075;-78
2021/12/05 19:17:03;;;;;;;;;17.67;16.00;;;;;;;;5182862;27;10619;-79
2021/12/05 19:19:29;;;;;;;;;20.00;17.67;;;;;;;;5181804;27;12411;-75
2021/12/05 19:21:56;;;;;;;;;17.00;15.33;;;;;;;;5162676;27;15983;-76
2021/12/05 19:24:21;;;;;;;;;19.67;16.33;;;;;;;;5181493;27;13401;-75
2021/12/05 19:26:48;;;;;;;;;20.00;16.33;;;;;;;;5180733;27;10677;-75
2021/12/05 19:29:16;;;;;;;;;20.33;20.00;;;;;;;;5180313;27;10238;-74
2021/12/05 19:31:42;;;;;;;;;19.67;19.67;;;;;;;;5180458;27;12648;-73
2021/12/05 19:34:08;;;;;;;;;20.33;18.33;;;;;;;;5162065;27;15418;-74
2021/12/05 19:36:33;;;;;;;;;25.33;20.00;;;;;;;;5181533;27;13769;-73
2021/12/05 19:38:59;;;;;;;;;22.67;16.33;;;;;;;;5181797;27;12253;-74
2021/12/05 19:41:25;;;;;;;;;15.00;15.00;;;;;;;;5162265;27;15337;-76
2021/12/05 19:43:51;;;;;;;;;17.00;15.00;;;;;;;;5182009;27;13676;-78
2021/12/05 19:46:18;;;;;;;;;24.00;19.33;;;;;;;;5181905;27;11448;-77
2021/12/05 19:48:45;;;;;;;;;15.33;15.33;;;;;;;;5181690;27;13325;-78
2021/12/05 19:51:11;;;;;;;;;19.67;18.33;;;;;;;;5182580;27;12243;-75
2021/12/05 19:53:38;;;;;;;;;25.33;21.33;;;;;;;;5181970;27;10443;-77
2021/12/05 19:56:04;;;;;;;;;27.00;27.00;;;;;;;;5181684;27;12281;-77
2021/12/05 19:58:29;;;;;;;;;44.33;35.00;;;;;;;;5180784;27;11448;-71
2021/12/05 20:00:55;;;;;;;;;81.25;62.50;;;;;;;;5180021;27;13630;-72
2021/12/05 20:03:20;;;;;;;;;91.75;67.50;;;;;;;;5181144;27;14280;-72
2021/12/05 20:05:46;;;;;;;;;76.00;61.50;;;;;;;;5180711;27;11394;-72
2021/12/05 20:08:12;;;;;;;;;24.50;17.00;;;;;;;;5181887;27;12185;-74
2021/12/05 20:10:38;;;;;;;;;63.33;49.00;;;;;;;;5181613;27;13240;-72
2021/12/05 20:13:04;;;;;;;;;50.67;44.33;;;;;;;;5181084;27;12290;-72
2021/12/05 20:15:34;;;;;;;;;57.67;46.33;;;;;;;;5181348;27;13890;-74
2021/12/05 20:18:00;;;;;;;;;47.00;44.33;;;;;;;;5162436;27;9053;-70
2021/12/05 20:20:25;;;;;;;;;42.67;33.33;;;;;;;;5181492;27;12731;-70
2021/12/05 20:22:51;;;;;;;;;37.00;34.67;;;;;;;;5179040;27;11589;-70
2021/12/05 20:25:18;;;;;;;;;35.67;33.67;;;;;;;;5156769;27;15420;-71
2021/12/05 20:27:43;;;;;;;;;39.33;32.00;;;;;;;;5179294;27;10440;-72
2021/12/05 20:30:19;;;;;;;;;32.00;29.67;;;;;;;;5180733;27;11385;-71
2021/12/05 20:32:45;;;;;;;;;35.67;32.00;;;;;;;;5161425;27;14330;-72
2021/12/05 20:35:14;;;;;;;;;32.33;28.00;;;;;;;;5180605;27;12349;-71
2021/12/05 20:37:40;;;;;;;;;33.00;31.33;;;;;;;;5161565;27;12092;-71
2021/12/05 20:40:11;;;;;;;;;40.67;36.33;;;;;;;;5180532;27;12448;-72
2021/12/05 20:42:36;;;;;;;;;40.33;34.33;;;;;;;;5180388;27;13430;-72
2021/12/05 20:45:01;;;;;;;;;34.33;31.33;;;;;;;;5180696;27;9528;-73
2021/12/05 20:47:27;;;;;;;;;37.00;32.67;;;;;;;;5180828;27;11009;-73
2021/12/05 20:49:52;;;;;;;;;32.00;28.33;;;;;;;;5176454;27;13092;-73
2021/12/05 20:52:17;;;;;;;;;29.00;27.67;;;;;;;;5179792;27;12196;-73
2021/12/05 20:54:42;;;;;;;;;29.00;28.00;;;;;;;;5179744;27;13285;-73
2021/12/05 20:57:11;;;;;;;;;35.33;34.67;;;;;;;;5169907;27;8862;-73
2021/12/05 20:59:39;;;;;;;;;35.67;30.33;;;;;;;;5164731;27;14709;-73
2021/12/05 21:02:05;;;;;;;;;39.67;35.33;;;;;;;;5159871;27;12609;-75
2021/12/05 21:04:30;;;;;;;;;31.67;28.67;;;;;;;;5177625;27;8813;-74
2021/12/05 21:06:56;;;;;;;;;51.67;45.33;;;;;;;;5180502;27;12323;-74
2021/12/05 21:09:22;;;;;;;;;45.67;39.33;;;;;;;;5180157;27;13589;-74
2021/12/05 21:11:47;;;;;;;;;43.00;33.33;;;;;;;;5179936;27;10423;-74
2021/12/05 21:14:14;;;;;;;;;34.00;31.33;;;;;;;;5164398;27;10923;-74
2021/12/05 21:16:40;;;;;;;;;41.33;33.67;;;;;;;;5181773;27;10618;-74
2021/12/05 21:19:05;;;;;;;;;43.33;36.67;;;;;;;;5164640;27;13577;-74
2021/12/05 21:21:31;;;;;;;;;47.00;38.00;;;;;;;;5184143;27;9505;-74
2021/12/05 21:23:56;;;;;;;;;46.00;36.33;;;;;;;;5164900;27;14532;-72
2021/12/05 21:26:22;;;;;;;;;45.67;38.33;;;;;;;;5161391;27;11404;-73
2021/12/05 21:28:47;;;;;;;;;46.33;40.00;;;;;;;;5182892;27;10354;-72
2021/12/05 21:31:14;;;;;;;;;39.67;37.67;;;;;;;;5183198;27;12236;-72
2021/12/05 21:33:39;;;;;;;;;42.00;41.00;;;;;;;;5126548;27;14984;-72
2021/12/05 21:36:06;;;;;;;;;45.00;36.67;;;;;;;;5058204;27;14446;-73
2021/12/05 21:38:32;;;;;;;;;43.00;34.33;;;;;;;;5128283;27;12353;-71
2021/12/05 21:41:02;;;;;;;;;38.00;31.67;;;;;;;;5141472;27;11401;-75
2021/12/05 21:43:29;;;;;;;;;34.00;33.67;;;;;;;;5141476;27;13477;-75
2021/12/05 21:45:57;;;;;;;;;45.67;39.33;;;;;;;;5140819;27;8867;-75
2021/12/05 21:48:25;;;;;;;;;38.67;34.67;;;;;;;;5138302;27;13331;-75
2021/12/05 21:50:51;;;;;;;;;40.00;37.67;;;;;;;;5141558;27;13649;-75
2021/12/05 21:53:22;;;;;;;;;29.67;27.67;;;;;;;;5141491;27;12956;-75
2021/12/05 21:55:48;;;;;;;;;38.67;31.67;;;;;;;;5119468;28;14096;-74
2021/12/05 21:58:14;;;;;;;;;34.33;29.67;;;;;;;;5118364;27;10426;-74
2021/12/05 22:00:44;;;;;;;;;32.00;28.67;;;;;;;;5121461;28;11565;-74
2021/12/05 22:03:09;;;;;;;;;33.00;28.33;;;;;;;;5102612;28;10779;-74
2021/12/05 22:05:35;;;;;;;;;36.33;33.00;;;;;;;;5121110;28;11381;-75
2021/12/05 22:08:01;;;;;;;;;29.00;28.33;;;;;;;;5120952;28;12380;-75
2021/12/05 22:10:27;;;;;;;;;32.33;28.00;;;;;;;;5127230;22;13565;-73
2021/12/05 22:12:52;;;;;;;;;30.67;28.67;;;;;;;;5079464;28;13325;-73
2021/12/05 22:15:19;;;;;;;;;37.00;29.67;;;;;;;;5080044;28;11353;-73
2021/12/05 22:17:46;;;;;;;;;32.67;28.33;;;;;;;;5080292;28;10475;-73
2021/12/05 22:20:12;;;;;;;;;24.33;19.67;;;;;;;;5080188;28;11515;-73
2021/12/05 22:22:38;;;;;;;;;34.33;29.33;;;;;;;;5079563;28;13339;-72
2021/12/05 22:25:05;;;;;;;;;33.67;27.00;;;;;;;;5061092;28;16765;-74
2021/12/05 22:27:31;;;;;;;;;35.00;28.00;;;;;;;;5079918;28;11436;-72
2021/12/05 22:29:56;;;;;;;;;33.33;29.67;;;;;;;;5080056;28;11704;-73
2021/12/05 22:32:22;;;;;;;;;29.33;25.00;;;;;;;;5078614;28;13536;-72
2021/12/05 22:34:48;;;;;;;;;30.00;28.00;;;;;;;;5079271;28;13671;-72
2021/12/05 22:37:14;;;;;;;;;25.00;24.00;;;;;;;;5079504;28;12360;-72
2021/12/05 22:39:39;;;;;;;;;29.67;25.67;;;;;;;;5079483;28;11870;-73
2021/12/05 22:42:05;;;;;;;;;27.33;24.67;;;;;;;;5079836;28;11896;-73
2021/12/05 22:44:30;;;;;;;;;31.00;27.33;;;;;;;;5078753;28;10387;-71
2021/12/05 22:46:56;;;;;;;;;30.67;26.33;;;;;;;;5079351;28;13376;-73
2021/12/05 22:49:22;;;;;;;;;30.67;25.33;;;;;;;;5079745;28;10410;-73
2021/12/05 22:51:48;;;;;;;;;30.00;24.00;;;;;;;;5079335;28;8915;-73
2021/12/05 22:54:14;;;;;;;;;21.00;19.33;;;;;;;;5079331;28;10693;-72
2021/12/05 22:56:39;;;;;;;;;27.33;25.33;;;;;;;;5078770;28;13387;-73
2021/12/05 22:59:04;;;;;;;;;29.33;25.33;;;;;;;;5078948;28;11536;-72
2021/12/05 23:01:30;;;;;;;;;26.67;26.67;;;;;;;;5080537;28;8757;-73
2021/12/05 23:04:01;;;;;;;;;26.00;20.33;;;;;;;;5078124;28;11571;-73
2021/12/05 23:06:27;;;;;;;;;30.33;26.67;;;;;;;;5079882;28;10328;-72
2021/12/05 23:08:53;;;;;;;;;27.67;23.00;;;;;;;;5079570;28;13834;-72
2021/12/05 23:11:19;;;;;;;;;26.67;21.00;;;;;;;;5078238;28;13362;-73
2021/12/05 23:13:46;;;;;;;;;20.00;19.33;;;;;;;;5079271;28;8891;-71
2021/12/05 23:16:12;;;;;;;;;25.67;18.67;;;;;;;;5079452;28;13014;-71
2021/12/05 23:18:38;;;;;;;;;20.33;20.33;;;;;;;;5079522;28;11544;-71
2021/12/05 23:21:04;;;;;;;;;20.67;19.33;;;;;;;;5079043;28;13646;-71
2021/12/05 23:23:30;;;;;;;;;23.00;18.33;;;;;;;;5079676;28;11534;-71
2021/12/05 23:25:55;;;;;;;;;24.00;21.67;;;;;;;;5079719;28;10350;-72
2021/12/05 23:28:24;;;;;;;;;29.00;18.33;;;;;;;;5079373;28;12330;-72
2021/12/05 23:30:50;;;;;;;;;22.00;17.67;;;;;;;;5079228;28;12668;-73
2021/12/05 23:33:17;;;;;;;;;21.33;20.00;;;;;;;;5079511;28;11706;-72
2021/12/05 23:35:42;;;;;;;;;24.00;20.67;;;;;;;;5060517;28;14543;-73
2021/12/05 23:38:08;;;;;;;;;26.00;21.00;;;;;;;;5079278;28;12266;-72
2021/12/05 23:40:34;;;;;;;;;28.67;20.33;;;;;;;;5078892;28;11516;-72
2021/12/05 23:43:00;;;;;;;;;22.33;20.00;;;;;;;;5079077;28;11386;-72
2021/12/05 23:45:26;;;;;;;;;24.00;20.00;;;;;;;;5079465;28;12141;-72
2021/12/05 23:47:51;;;;;;;;;23.00;20.00;;;;;;;;5060699;28;9571;-72
2021/12/05 23:50:20;;;;;;;;;23.67;20.00;;;;;;;;5079026;28;9616;-74
2021/12/05 23:52:46;;;;;;;;;20.33;20.33;;;;;;;;5079336;28;8870;-73
2021/12/05 23:55:13;;;;;;;;;28.33;22.33;;;;;;;;5060797;28;11613;-73
2021/12/05 23:57:39;;;;;;;;;20.00;20.00;;;;;;;;5078763;28;8831;-72
